North Adams, Massachusetts
Current Conditions -  °F | °C
As of 3:52 AM on Saturday 29 Nov 2014 (Local Time) from KAQW Reporting Station
Overcast Overcast  
Wind Chill: 14°   Ceiling: 11000
Heat Index: 14°   Visibility: 10mi
Dew Point: 12°   Wind: 3mph
Humidity: 92%   Direction: 290°WNW
Pressure: 30.24"   Gusts: NA
Location:  42.7°N, 73.11°W
Report Text: KAQW 290852Z AUTO 29003KT 10SM OVC110 M10/M11 A3024 RMK AO2 SLP251 T11001111 51009
Loading
Personal Weather Stations






























Interactive Weather Map New forecast layout! Learn more

10-Day Weather Forecast

Advertisements
Track Severe Weather on mobile